sensor_id;sensor_type;location;lat;lon;timestamp;P1;durP1;ratioP1;P2;durP2;ratioP2
39782;SDS011;25462;51.164;17.100;2023-04-25T00:00:59;5.20;;;1.90;;
39782;SDS011;25462;51.164;17.100;2023-04-25T00:06:03;3.80;;;2.10;;
39782;SDS011;25462;51.164;17.100;2023-04-25T00:11:07;5.00;;;2.00;;
39782;SDS011;25462;51.164;17.100;2023-04-25T00:16:11;3.80;;;1.70;;
39782;SDS011;25462;51.164;17.100;2023-04-25T00:21:17;3.10;;;1.60;;
39782;SDS011;25462;51.164;17.100;2023-04-25T00:26:23;3.10;;;1.70;;
39782;SDS011;25462;51.164;17.100;2023-04-25T00:31:27;3.00;;;1.60;;
39782;SDS011;25462;51.164;17.100;2023-04-25T00:36:32;4.70;;;1.80;;
39782;SDS011;25462;51.164;17.100;2023-04-25T00:41:36;3.60;;;1.60;;
39782;SDS011;25462;51.164;17.100;2023-04-25T00:46:40;4.10;;;1.60;;
39782;SDS011;25462;51.164;17.100;2023-04-25T00:51:44;4.10;;;1.60;;
39782;SDS011;25462;51.164;17.100;2023-04-25T00:56:48;2.90;;;1.60;;
39782;SDS011;25462;51.164;17.100;2023-04-25T01:01:52;6.20;;;1.50;;
39782;SDS011;25462;51.164;17.100;2023-04-25T01:06:56;4.10;;;1.40;;
39782;SDS011;25462;51.164;17.100;2023-04-25T01:12:01;2.70;;;1.30;;
39782;SDS011;25462;51.164;17.100;2023-04-25T01:17:06;2.40;;;1.40;;
39782;SDS011;25462;51.164;17.100;2023-04-25T01:22:11;2.80;;;1.20;;
39782;SDS011;25462;51.164;17.100;2023-04-25T01:27:15;2.90;;;1.20;;
39782;SDS011;25462;51.164;17.100;2023-04-25T01:32:19;2.20;;;1.20;;
39782;SDS011;25462;51.164;17.100;2023-04-25T01:37:23;2.70;;;1.40;;
39782;SDS011;25462;51.164;17.100;2023-04-25T01:42:27;2.90;;;1.60;;
39782;SDS011;25462;51.164;17.100;2023-04-25T01:47:31;3.50;;;1.60;;
39782;SDS011;25462;51.164;17.100;2023-04-25T01:52:35;2.80;;;1.70;;
39782;SDS011;25462;51.164;17.100;2023-04-25T01:57:40;3.20;;;2.00;;
39782;SDS011;25462;51.164;17.100;2023-04-25T02:02:46;4.00;;;2.10;;
39782;SDS011;25462;51.164;17.100;2023-04-25T02:08:06;3.30;;;2.20;;
39782;SDS011;25462;51.164;17.100;2023-04-25T02:13:12;5.40;;;2.50;;
39782;SDS011;25462;51.164;17.100;2023-04-25T02:18:22;5.00;;;2.70;;
39782;SDS011;25462;51.164;17.100;2023-04-25T02:23:26;3.70;;;2.50;;
39782;SDS011;25462;51.164;17.100;2023-04-25T02:28:30;4.00;;;2.60;;
39782;SDS011;25462;51.164;17.100;2023-04-25T02:33:34;8.00;;;3.00;;
39782;SDS011;25462;51.164;17.100;2023-04-25T02:38:40;5.00;;;3.40;;
39782;SDS011;25462;51.164;17.100;2023-04-25T02:43:44;4.70;;;3.10;;
39782;SDS011;25462;51.164;17.100;2023-04-25T02:48:48;7.80;;;3.60;;
39782;SDS011;25462;51.164;17.100;2023-04-25T02:53:52;5.40;;;3.60;;
39782;SDS011;25462;51.164;17.100;2023-04-25T02:58:56;8.80;;;3.80;;
39782;SDS011;25462;51.164;17.100;2023-04-25T03:03:59;10.30;;;3.80;;
39782;SDS011;25462;51.164;17.100;2023-04-25T03:09:03;8.80;;;3.60;;
39782;SDS011;25462;51.164;17.100;2023-04-25T03:14:07;5.60;;;3.60;;
39782;SDS011;25462;51.164;17.100;2023-04-25T03:19:11;6.60;;;3.70;;
39782;SDS011;25462;51.164;17.100;2023-04-25T03:24:15;6.10;;;3.30;;
39782;SDS011;25462;51.164;17.100;2023-04-25T03:29:19;4.80;;;3.60;;
39782;SDS011;25462;51.164;17.100;2023-04-25T03:34:32;6.20;;;3.80;;
39782;SDS011;25462;51.164;17.100;2023-04-25T03:39:35;7.20;;;3.70;;
39782;SDS011;25462;51.164;17.100;2023-04-25T03:44:39;8.80;;;3.70;;
39782;SDS011;25462;51.164;17.100;2023-04-25T03:49:44;4.70;;;3.40;;
39782;SDS011;25462;51.164;17.100;2023-04-25T03:54:48;7.10;;;3.90;;
39782;SDS011;25462;51.164;17.100;2023-04-25T03:59:55;8.00;;;3.70;;
39782;SDS011;25462;51.164;17.100;2023-04-25T04:05:00;5.20;;;3.10;;
39782;SDS011;25462;51.164;17.100;2023-04-25T04:10:09;9.20;;;4.40;;
39782;SDS011;25462;51.164;17.100;2023-04-25T04:15:15;8.50;;;4.50;;
39782;SDS011;25462;51.164;17.100;2023-04-25T04:20:20;9.70;;;5.50;;
39782;SDS011;25462;51.164;17.100;2023-04-25T04:25:24;8.70;;;5.30;;
39782;SDS011;25462;51.164;17.100;2023-04-25T04:30:40;8.00;;;4.50;;
39782;SDS011;25462;51.164;17.100;2023-04-25T04:35:45;11.80;;;5.40;;
39782;SDS011;25462;51.164;17.100;2023-04-25T04:40:51;10.20;;;5.90;;
39782;SDS011;25462;51.164;17.100;2023-04-25T04:46:16;7.50;;;4.90;;
39782;SDS011;25462;51.164;17.100;2023-04-25T04:51:41;8.80;;;5.40;;
39782;SDS011;25462;51.164;17.100;2023-04-25T04:57:27;8.60;;;5.10;;
39782;SDS011;25462;51.164;17.100;2023-04-25T05:02:52;12.00;;;5.30;;
39782;SDS011;25462;51.164;17.100;2023-04-25T05:08:06;9.70;;;5.40;;
39782;SDS011;25462;51.164;17.100;2023-04-25T05:13:42;7.20;;;4.60;;
39782;SDS011;25462;51.164;17.100;2023-04-25T05:19:05;9.20;;;5.20;;
39782;SDS011;25462;51.164;17.100;2023-04-25T05:24:38;8.80;;;4.90;;
39782;SDS011;25462;51.164;17.100;2023-04-25T05:29:50;7.50;;;5.00;;
39782;SDS011;25462;51.164;17.100;2023-04-25T05:35:13;14.60;;;4.90;;
39782;SDS011;25462;51.164;17.100;2023-04-25T05:40:21;9.40;;;5.10;;
39782;SDS011;25462;51.164;17.100;2023-04-25T05:45:54;6.80;;;4.40;;
39782;SDS011;25462;51.164;17.100;2023-04-25T05:51:18;6.40;;;4.20;;
39782;SDS011;25462;51.164;17.100;2023-04-25T05:56:46;10.10;;;5.10;;
39782;SDS011;25462;51.164;17.100;2023-04-25T06:01:49;7.40;;;4.70;;
39782;SDS011;25462;51.164;17.100;2023-04-25T06:06:54;7.40;;;5.10;;
39782;SDS011;25462;51.164;17.100;2023-04-25T06:11:58;8.00;;;4.60;;
39782;SDS011;25462;51.164;17.100;2023-04-25T06:17:02;10.10;;;4.80;;
39782;SDS011;25462;51.164;17.100;2023-04-25T06:22:09;8.70;;;4.70;;
39782;SDS011;25462;51.164;17.100;2023-04-25T06:27:15;7.70;;;4.70;;
39782;SDS011;25462;51.164;17.100;2023-04-25T06:32:19;7.60;;;4.60;;
39782;SDS011;25462;51.164;17.100;2023-04-25T06:37:23;12.20;;;5.10;;
39782;SDS011;25462;51.164;17.100;2023-04-25T06:42:27;10.00;;;4.30;;
39782;SDS011;25462;51.164;17.100;2023-04-25T06:47:34;7.60;;;4.10;;
39782;SDS011;25462;51.164;17.100;2023-04-25T06:52:39;9.50;;;4.00;;
39782;SDS011;25462;51.164;17.100;2023-04-25T06:57:47;6.70;;;4.10;;
39782;SDS011;25462;51.164;17.100;2023-04-25T07:03:17;5.50;;;3.50;;
39782;SDS011;25462;51.164;17.100;2023-04-25T07:08:22;7.30;;;3.80;;
39782;SDS011;25462;51.164;17.100;2023-04-25T07:13:26;8.60;;;4.30;;
39782;SDS011;25462;51.164;17.100;2023-04-25T07:18:30;7.50;;;3.90;;
39782;SDS011;25462;51.164;17.100;2023-04-25T07:23:34;17.10;;;5.20;;
39782;SDS011;25462;51.164;17.100;2023-04-25T07:28:43;57.70;;;12.60;;
39782;SDS011;25462;51.164;17.100;2023-04-25T07:33:47;5.50;;;2.90;;
39782;SDS011;25462;51.164;17.100;2023-04-25T07:38:51;5.70;;;3.00;;
39782;SDS011;25462;51.164;17.100;2023-04-25T07:43:56;5.60;;;2.70;;
39782;SDS011;25462;51.164;17.100;2023-04-25T07:49:00;9.40;;;3.50;;
39782;SDS011;25462;51.164;17.100;2023-04-25T07:54:04;8.00;;;3.90;;
39782;SDS011;25462;51.164;17.100;2023-04-25T07:59:10;7.60;;;3.60;;
39782;SDS011;25462;51.164;17.100;2023-04-25T08:04:15;8.60;;;3.50;;
39782;SDS011;25462;51.164;17.100;2023-04-25T08:09:25;8.00;;;3.20;;
39782;SDS011;25462;51.164;17.100;2023-04-25T08:14:31;6.90;;;3.40;;
39782;SDS011;25462;51.164;17.100;2023-04-25T08:19:40;7.00;;;3.30;;
39782;SDS011;25462;51.164;17.100;2023-04-25T08:24:49;9.00;;;4.00;;
39782;SDS011;25462;51.164;17.100;2023-04-25T08:29:53;12.90;;;4.90;;
39782;SDS011;25462;51.164;17.100;2023-04-25T08:34:57;6.80;;;4.30;;
39782;SDS011;25462;51.164;17.100;2023-04-25T08:40:02;6.30;;;4.50;;
39782;SDS011;25462;51.164;17.100;2023-04-25T08:45:22;7.90;;;4.50;;
39782;SDS011;25462;51.164;17.100;2023-04-25T08:50:26;8.80;;;3.90;;
39782;SDS011;25462;51.164;17.100;2023-04-25T08:55:32;8.30;;;4.10;;
39782;SDS011;25462;51.164;17.100;2023-04-25T09:00:38;8.10;;;4.80;;
39782;SDS011;25462;51.164;17.100;2023-04-25T09:05:43;10.70;;;5.00;;
39782;SDS011;25462;51.164;17.100;2023-04-25T09:10:50;10.40;;;5.10;;
39782;SDS011;25462;51.164;17.100;2023-04-25T09:15:55;7.30;;;4.40;;
39782;SDS011;25462;51.164;17.100;2023-04-25T09:21:35;8.10;;;5.20;;
39782;SDS011;25462;51.164;17.100;2023-04-25T09:26:46;10.90;;;5.70;;
39782;SDS011;25462;51.164;17.100;2023-04-25T09:31:51;7.40;;;4.70;;
39782;SDS011;25462;51.164;17.100;2023-04-25T09:36:55;7.50;;;4.70;;
39782;SDS011;25462;51.164;17.100;2023-04-25T09:42:23;8.00;;;5.30;;
39782;SDS011;25462;51.164;17.100;2023-04-25T09:47:28;10.80;;;5.80;;
39782;SDS011;25462;51.164;17.100;2023-04-25T09:52:32;8.20;;;5.10;;
39782;SDS011;25462;51.164;17.100;2023-04-25T09:57:48;6.70;;;4.40;;
39782;SDS011;25462;51.164;17.100;2023-04-25T10:02:53;6.40;;;3.90;;
39782;SDS011;25462;51.164;17.100;2023-04-25T10:08:14;7.40;;;3.70;;
39782;SDS011;25462;51.164;17.100;2023-04-25T10:13:19;6.80;;;3.40;;
39782;SDS011;25462;51.164;17.100;2023-04-25T10:18:27;5.80;;;3.40;;
39782;SDS011;25462;51.164;17.100;2023-04-25T10:23:31;7.00;;;3.80;;
39782;SDS011;25462;51.164;17.100;2023-04-25T10:34:01;6.30;;;2.60;;
39782;SDS011;25462;51.164;17.100;2023-04-25T10:39:05;4.00;;;2.30;;
39782;SDS011;25462;51.164;17.100;2023-04-25T10:44:10;7.20;;;2.90;;
39782;SDS011;25462;51.164;17.100;2023-04-25T10:49:59;5.00;;;2.50;;
39782;SDS011;25462;51.164;17.100;2023-04-25T10:54:55;6.30;;;2.40;;
39782;SDS011;25462;51.164;17.100;2023-04-25T11:00:00;6.90;;;3.60;;
39782;SDS011;25462;51.164;17.100;2023-04-25T11:10:31;4.10;;;2.20;;
39782;SDS011;25462;51.164;17.100;2023-04-25T11:15:35;6.00;;;3.00;;
39782;SDS011;25462;51.164;17.100;2023-04-25T11:20:39;7.30;;;3.10;;
39782;SDS011;25462;51.164;17.100;2023-04-25T11:25:46;6.00;;;2.70;;
39782;SDS011;25462;51.164;17.100;2023-04-25T11:30:50;4.40;;;2.40;;
39782;SDS011;25462;51.164;17.100;2023-04-25T11:35:54;4.00;;;2.20;;
39782;SDS011;25462;51.164;17.100;2023-04-25T11:40:59;3.30;;;1.50;;
39782;SDS011;25462;51.164;17.100;2023-04-25T11:46:07;3.90;;;1.70;;
39782;SDS011;25462;51.164;17.100;2023-04-25T11:51:11;3.90;;;1.40;;
39782;SDS011;25462;51.164;17.100;2023-04-25T11:56:15;5.40;;;1.40;;
39782;SDS011;25462;51.164;17.100;2023-04-25T12:01:26;3.40;;;1.40;;
39782;SDS011;25462;51.164;17.100;2023-04-25T12:06:33;3.00;;;1.60;;
39782;SDS011;25462;51.164;17.100;2023-04-25T12:11:43;2.10;;;1.20;;
39782;SDS011;25462;51.164;17.100;2023-04-25T12:16:48;1.70;;;1.00;;
39782;SDS011;25462;51.164;17.100;2023-04-25T12:21:52;5.80;;;1.30;;
39782;SDS011;25462;51.164;17.100;2023-04-25T12:27:02;3.50;;;1.70;;
39782;SDS011;25462;51.164;17.100;2023-04-25T12:32:08;5.30;;;1.70;;
39782;SDS011;25462;51.164;17.100;2023-04-25T12:37:12;3.10;;;1.40;;
39782;SDS011;25462;51.164;17.100;2023-04-25T12:42:17;3.30;;;1.60;;
39782;SDS011;25462;51.164;17.100;2023-04-25T12:47:21;5.20;;;1.50;;
39782;SDS011;25462;51.164;17.100;2023-04-25T12:52:24;5.20;;;1.90;;
39782;SDS011;25462;51.164;17.100;2023-04-25T12:57:29;4.20;;;1.60;;
39782;SDS011;25462;51.164;17.100;2023-04-25T13:02:32;2.80;;;1.30;;
39782;SDS011;25462;51.164;17.100;2023-04-25T13:07:37;4.80;;;1.90;;
39782;SDS011;25462;51.164;17.100;2023-04-25T13:12:40;5.10;;;1.60;;
39782;SDS011;25462;51.164;17.100;2023-04-25T13:17:44;4.10;;;1.70;;
39782;SDS011;25462;51.164;17.100;2023-04-25T13:22:48;5.50;;;1.70;;
39782;SDS011;25462;51.164;17.100;2023-04-25T13:27:52;6.00;;;1.70;;
39782;SDS011;25462;51.164;17.100;2023-04-25T13:32:55;3.40;;;1.80;;
39782;SDS011;25462;51.164;17.100;2023-04-25T13:38:00;4.40;;;1.50;;
39782;SDS011;25462;51.164;17.100;2023-04-25T13:43:04;4.40;;;1.90;;
39782;SDS011;25462;51.164;17.100;2023-04-25T13:48:09;3.20;;;1.60;;
39782;SDS011;25462;51.164;17.100;2023-04-25T13:53:13;3.00;;;1.40;;
39782;SDS011;25462;51.164;17.100;2023-04-25T13:58:17;6.00;;;2.40;;
39782;SDS011;25462;51.164;17.100;2023-04-25T14:03:21;3.90;;;1.50;;
39782;SDS011;25462;51.164;17.100;2023-04-25T14:08:25;5.30;;;1.60;;
39782;SDS011;25462;51.164;17.100;2023-04-25T14:13:29;2.80;;;1.60;;
39782;SDS011;25462;51.164;17.100;2023-04-25T14:18:33;3.40;;;1.40;;
39782;SDS011;25462;51.164;17.100;2023-04-25T14:23:37;2.90;;;1.50;;
39782;SDS011;25462;51.164;17.100;2023-04-25T14:28:42;4.10;;;1.50;;
39782;SDS011;25462;51.164;17.100;2023-04-25T14:33:57;4.00;;;1.40;;
39782;SDS011;25462;51.164;17.100;2023-04-25T14:39:02;3.80;;;1.90;;
39782;SDS011;25462;51.164;17.100;2023-04-25T14:44:08;4.10;;;1.70;;
39782;SDS011;25462;51.164;17.100;2023-04-25T14:49:12;4.10;;;1.60;;
39782;SDS011;25462;51.164;17.100;2023-04-25T14:54:15;4.10;;;1.80;;
39782;SDS011;25462;51.164;17.100;2023-04-25T14:59:20;4.10;;;1.90;;
39782;SDS011;25462;51.164;17.100;2023-04-25T15:04:24;4.80;;;1.80;;
39782;SDS011;25462;51.164;17.100;2023-04-25T15:09:28;3.40;;;1.60;;
39782;SDS011;25462;51.164;17.100;2023-04-25T15:14:31;3.10;;;1.50;;
39782;SDS011;25462;51.164;17.100;2023-04-25T15:19:37;6.00;;;1.60;;
39782;SDS011;25462;51.164;17.100;2023-04-25T15:24:41;3.60;;;1.30;;
39782;SDS011;25462;51.164;17.100;2023-04-25T15:29:44;3.60;;;1.50;;
39782;SDS011;25462;51.164;17.100;2023-04-25T15:34:48;3.50;;;1.70;;
39782;SDS011;25462;51.164;17.100;2023-04-25T15:40:00;4.30;;;1.70;;
39782;SDS011;25462;51.164;17.100;2023-04-25T15:45:12;5.70;;;1.80;;
39782;SDS011;25462;51.164;17.100;2023-04-25T15:50:17;3.40;;;1.60;;
39782;SDS011;25462;51.164;17.100;2023-04-25T15:55:21;4.10;;;2.10;;
39782;SDS011;25462;51.164;17.100;2023-04-25T16:00:25;5.10;;;2.20;;
39782;SDS011;25462;51.164;17.100;2023-04-25T16:05:29;4.60;;;2.30;;
39782;SDS011;25462;51.164;17.100;2023-04-25T16:10:33;3.80;;;2.10;;
39782;SDS011;25462;51.164;17.100;2023-04-25T16:15:37;4.90;;;2.00;;
39782;SDS011;25462;51.164;17.100;2023-04-25T16:20:42;6.00;;;2.00;;
39782;SDS011;25462;51.164;17.100;2023-04-25T16:25:45;4.90;;;2.10;;
39782;SDS011;25462;51.164;17.100;2023-04-25T16:30:49;5.20;;;2.30;;
39782;SDS011;25462;51.164;17.100;2023-04-25T16:35:53;3.70;;;2.20;;
39782;SDS011;25462;51.164;17.100;2023-04-25T16:40:57;4.70;;;1.90;;
39782;SDS011;25462;51.164;17.100;2023-04-25T16:46:02;4.30;;;1.70;;
39782;SDS011;25462;51.164;17.100;2023-04-25T16:51:06;4.90;;;1.90;;
39782;SDS011;25462;51.164;17.100;2023-04-25T16:56:09;5.80;;;3.10;;
39782;SDS011;25462;51.164;17.100;2023-04-25T17:01:13;2.60;;;1.20;;
39782;SDS011;25462;51.164;17.100;2023-04-25T17:06:23;3.70;;;1.30;;
39782;SDS011;25462;51.164;17.100;2023-04-25T17:11:27;4.40;;;1.70;;
39782;SDS011;25462;51.164;17.100;2023-04-25T17:16:35;4.30;;;2.00;;
39782;SDS011;25462;51.164;17.100;2023-04-25T17:21:40;7.00;;;2.70;;
39782;SDS011;25462;51.164;17.100;2023-04-25T17:26:45;6.30;;;1.60;;
39782;SDS011;25462;51.164;17.100;2023-04-25T17:31:51;5.70;;;2.30;;
39782;SDS011;25462;51.164;17.100;2023-04-25T17:36:57;11.60;;;3.80;;
39782;SDS011;25462;51.164;17.100;2023-04-25T17:42:01;10.40;;;2.90;;
39782;SDS011;25462;51.164;17.100;2023-04-25T17:47:06;7.50;;;2.30;;
39782;SDS011;25462;51.164;17.100;2023-04-25T17:52:12;10.20;;;3.00;;
39782;SDS011;25462;51.164;17.100;2023-04-25T17:57:17;8.20;;;3.80;;
39782;SDS011;25462;51.164;17.100;2023-04-25T18:02:25;13.90;;;5.20;;
39782;SDS011;25462;51.164;17.100;2023-04-25T18:07:30;12.10;;;4.20;;
39782;SDS011;25462;51.164;17.100;2023-04-25T18:12:34;15.00;;;3.90;;
39782;SDS011;25462;51.164;17.100;2023-04-25T18:17:40;11.30;;;4.00;;
39782;SDS011;25462;51.164;17.100;2023-04-25T18:22:47;11.90;;;4.30;;
39782;SDS011;25462;51.164;17.100;2023-04-25T18:27:54;11.70;;;4.50;;
39782;SDS011;25462;51.164;17.100;2023-04-25T18:33:01;9.90;;;4.30;;
39782;SDS011;25462;51.164;17.100;2023-04-25T18:38:06;14.30;;;4.60;;
39782;SDS011;25462;51.164;17.100;2023-04-25T18:43:12;11.90;;;4.70;;
39782;SDS011;25462;51.164;17.100;2023-04-25T18:48:18;13.00;;;4.50;;
39782;SDS011;25462;51.164;17.100;2023-04-25T18:53:26;8.40;;;4.10;;
39782;SDS011;25462;51.164;17.100;2023-04-25T18:58:31;12.50;;;4.10;;
39782;SDS011;25462;51.164;17.100;2023-04-25T19:03:42;13.70;;;5.00;;
39782;SDS011;25462;51.164;17.100;2023-04-25T19:08:50;15.90;;;5.40;;
39782;SDS011;25462;51.164;17.100;2023-04-25T19:13:56;14.70;;;5.20;;
39782;SDS011;25462;51.164;17.100;2023-04-25T19:19:08;10.90;;;4.40;;
39782;SDS011;25462;51.164;17.100;2023-04-25T19:24:13;13.40;;;4.60;;
39782;SDS011;25462;51.164;17.100;2023-04-25T19:29:19;18.00;;;5.20;;
39782;SDS011;25462;51.164;17.100;2023-04-25T19:34:27;16.40;;;5.30;;
39782;SDS011;25462;51.164;17.100;2023-04-25T19:39:32;12.90;;;5.40;;
39782;SDS011;25462;51.164;17.100;2023-04-25T19:44:43;13.30;;;5.30;;
39782;SDS011;25462;51.164;17.100;2023-04-25T19:49:51;12.50;;;5.40;;
39782;SDS011;25462;51.164;17.100;2023-04-25T19:54:55;18.50;;;5.80;;
39782;SDS011;25462;51.164;17.100;2023-04-25T20:00:10;19.10;;;5.70;;
39782;SDS011;25462;51.164;17.100;2023-04-25T20:05:22;13.00;;;6.10;;
39782;SDS011;25462;51.164;17.100;2023-04-25T20:10:45;14.40;;;5.80;;
39782;SDS011;25462;51.164;17.100;2023-04-25T20:15:50;16.90;;;6.20;;
39782;SDS011;25462;51.164;17.100;2023-04-25T20:20:55;15.80;;;5.90;;
39782;SDS011;25462;51.164;17.100;2023-04-25T20:26:00;20.60;;;7.00;;
39782;SDS011;25462;51.164;17.100;2023-04-25T20:31:09;19.20;;;7.60;;
39782;SDS011;25462;51.164;17.100;2023-04-25T20:36:17;16.90;;;6.70;;
39782;SDS011;25462;51.164;17.100;2023-04-25T20:41:23;21.00;;;5.20;;
39782;SDS011;25462;51.164;17.100;2023-04-25T20:46:27;17.80;;;5.00;;
39782;SDS011;25462;51.164;17.100;2023-04-25T20:51:33;16.80;;;5.60;;
39782;SDS011;25462;51.164;17.100;2023-04-25T20:56:37;13.40;;;5.30;;
39782;SDS011;25462;51.164;17.100;2023-04-25T21:01:42;16.20;;;4.50;;
39782;SDS011;25462;51.164;17.100;2023-04-25T21:06:47;14.50;;;5.20;;
39782;SDS011;25462;51.164;17.100;2023-04-25T21:11:53;14.50;;;5.10;;
39782;SDS011;25462;51.164;17.100;2023-04-25T21:16:57;18.30;;;5.00;;
39782;SDS011;25462;51.164;17.100;2023-04-25T21:22:01;13.30;;;5.50;;
39782;SDS011;25462;51.164;17.100;2023-04-25T21:27:13;16.60;;;4.40;;
39782;SDS011;25462;51.164;17.100;2023-04-25T21:32:26;16.20;;;4.40;;
39782;SDS011;25462;51.164;17.100;2023-04-25T21:37:43;14.70;;;4.80;;
39782;SDS011;25462;51.164;17.100;2023-04-25T21:42:48;14.60;;;6.00;;
39782;SDS011;25462;51.164;17.100;2023-04-25T21:47:57;18.30;;;5.10;;
39782;SDS011;25462;51.164;17.100;2023-04-25T21:53:11;17.60;;;4.70;;
39782;SDS011;25462;51.164;17.100;2023-04-25T21:58:24;22.50;;;7.70;;
39782;SDS011;25462;51.164;17.100;2023-04-25T22:03:28;19.70;;;6.60;;
39782;SDS011;25462;51.164;17.100;2023-04-25T22:08:40;17.50;;;7.70;;
39782;SDS011;25462;51.164;17.100;2023-04-25T22:13:52;20.10;;;5.60;;
39782;SDS011;25462;51.164;17.100;2023-04-25T22:18:57;18.20;;;4.80;;
39782;SDS011;25462;51.164;17.100;2023-04-25T22:24:03;14.80;;;5.00;;
39782;SDS011;25462;51.164;17.100;2023-04-25T22:29:09;17.00;;;5.10;;
39782;SDS011;25462;51.164;17.100;2023-04-25T22:34:14;12.30;;;4.40;;
39782;SDS011;25462;51.164;17.100;2023-04-25T22:39:19;16.80;;;5.00;;
39782;SDS011;25462;51.164;17.100;2023-04-25T22:44:23;18.70;;;5.30;;
39782;SDS011;25462;51.164;17.100;2023-04-25T22:49:27;15.60;;;6.00;;
39782;SDS011;25462;51.164;17.100;2023-04-25T22:54:32;14.30;;;5.10;;
39782;SDS011;25462;51.164;17.100;2023-04-25T22:59:38;17.90;;;6.00;;
39782;SDS011;25462;51.164;17.100;2023-04-25T23:04:43;23.40;;;6.70;;
39782;SDS011;25462;51.164;17.100;2023-04-25T23:09:47;18.80;;;5.90;;
39782;SDS011;25462;51.164;17.100;2023-04-25T23:14:53;18.20;;;6.10;;
39782;SDS011;25462;51.164;17.100;2023-04-25T23:20:01;16.10;;;6.10;;
39782;SDS011;25462;51.164;17.100;2023-04-25T23:25:10;21.00;;;7.60;;
39782;SDS011;25462;51.164;17.100;2023-04-25T23:30:17;17.50;;;6.70;;
39782;SDS011;25462;51.164;17.100;2023-04-25T23:35:22;14.10;;;5.90;;
39782;SDS011;25462;51.164;17.100;2023-04-25T23:40:29;18.00;;;6.70;;
39782;SDS011;25462;51.164;17.100;2023-04-25T23:45:35;15.70;;;6.40;;
39782;SDS011;25462;51.164;17.100;2023-04-25T23:50:39;18.60;;;5.50;;
39782;SDS011;25462;51.164;17.100;2023-04-25T23:55:44;14.30;;;5.80;;
